sensor_id;sensor_type;location;lat;lon;timestamp;P1;durP1;ratioP1;P2;durP2;ratioP2
24961;SDS011;12992;50.884;13.668;2022-09-01T00:01:52;4.47;;;2.83;;
24961;SDS011;12992;50.884;13.668;2022-09-01T00:04:19;7.03;;;2.83;;
24961;SDS011;12992;50.884;13.668;2022-09-01T00:06:47;5.78;;;2.80;;
24961;SDS011;12992;50.884;13.668;2022-09-01T00:09:14;5.75;;;2.90;;
24961;SDS011;12992;50.884;13.668;2022-09-01T00:11:43;2.90;;;2.60;;
24961;SDS011;12992;50.884;13.668;2022-09-01T00:14:13;3.80;;;2.80;;
24961;SDS011;12992;50.884;13.668;2022-09-01T00:16:38;3.40;;;2.70;;
24961;SDS011;12992;50.884;13.668;2022-09-01T00:19:04;5.40;;;3.00;;
24961;SDS011;12992;50.884;13.668;2022-09-01T00:21:31;4.13;;;2.70;;
24961;SDS011;12992;50.884;13.668;2022-09-01T00:23:59;4.53;;;2.80;;
24961;SDS011;12992;50.884;13.668;2022-09-01T00:26:24;4.70;;;2.92;;
24961;SDS011;12992;50.884;13.668;2022-09-01T00:28:50;3.03;;;2.22;;
24961;SDS011;12992;50.884;13.668;2022-09-01T00:31:15;4.63;;;2.67;;
24961;SDS011;12992;50.884;13.668;2022-09-01T00:33:42;3.38;;;2.85;;
24961;SDS011;12992;50.884;13.668;2022-09-01T00:36:08;3.70;;;2.53;;
24961;SDS011;12992;50.884;13.668;2022-09-01T00:38:33;4.53;;;2.70;;
24961;SDS011;12992;50.884;13.668;2022-09-01T00:40:59;4.13;;;2.60;;
24961;SDS011;12992;50.884;13.668;2022-09-01T00:43:36;6.72;;;3.00;;
24961;SDS011;12992;50.884;13.668;2022-09-01T00:46:05;3.17;;;2.88;;
24961;SDS011;12992;50.884;13.668;2022-09-01T00:48:38;5.00;;;2.65;;
24961;SDS011;12992;50.884;13.668;2022-09-01T00:51:04;5.30;;;2.70;;
24961;SDS011;12992;50.884;13.668;2022-09-01T00:53:32;2.45;;;2.25;;
24961;SDS011;12992;50.884;13.668;2022-09-01T00:55:59;3.95;;;2.50;;
24961;SDS011;12992;50.884;13.668;2022-09-01T00:58:25;5.88;;;2.63;;
24961;SDS011;12992;50.884;13.668;2022-09-01T01:00:51;4.13;;;2.53;;
24961;SDS011;12992;50.884;13.668;2022-09-01T01:03:17;3.38;;;2.25;;
24961;SDS011;12992;50.884;13.668;2022-09-01T01:05:47;4.55;;;2.65;;
24961;SDS011;12992;50.884;13.668;2022-09-01T01:08:17;3.75;;;2.53;;
24961;SDS011;12992;50.884;13.668;2022-09-01T01:10:53;5.03;;;2.70;;
24961;SDS011;12992;50.884;13.668;2022-09-01T01:13:18;3.20;;;2.70;;
24961;SDS011;12992;50.884;13.668;2022-09-01T01:15:45;3.97;;;2.70;;
24961;SDS011;12992;50.884;13.668;2022-09-01T01:18:13;4.85;;;2.70;;
24961;SDS011;12992;50.884;13.668;2022-09-01T01:20:40;3.53;;;2.85;;
24961;SDS011;12992;50.884;13.668;2022-09-01T01:23:39;3.97;;;2.55;;
24961;SDS011;12992;50.884;13.668;2022-09-01T01:26:12;5.28;;;3.10;;
24961;SDS011;12992;50.884;13.668;2022-09-01T01:28:40;4.07;;;2.85;;
24961;SDS011;12992;50.884;13.668;2022-09-01T01:31:12;6.00;;;3.22;;
24961;SDS011;12992;50.884;13.668;2022-09-01T01:33:43;5.00;;;3.35;;
24961;SDS011;12992;50.884;13.668;2022-09-01T01:36:15;5.57;;;3.20;;
24961;SDS011;12992;50.884;13.668;2022-09-01T01:38:45;5.90;;;2.90;;
24961;SDS011;12992;50.884;13.668;2022-09-01T01:41:12;5.13;;;3.15;;
24961;SDS011;12992;50.884;13.668;2022-09-01T01:43:41;3.08;;;2.78;;
24961;SDS011;12992;50.884;13.668;2022-09-01T01:46:08;5.10;;;2.97;;
24961;SDS011;12992;50.884;13.668;2022-09-01T01:48:37;3.65;;;2.60;;
24961;SDS011;12992;50.884;13.668;2022-09-01T01:51:05;5.57;;;2.70;;
24961;SDS011;12992;50.884;13.668;2022-09-01T01:53:32;2.92;;;2.30;;
24961;SDS011;12992;50.884;13.668;2022-09-01T01:55:58;4.72;;;2.83;;
24961;SDS011;12992;50.884;13.668;2022-09-01T01:58:28;3.50;;;2.70;;
24961;SDS011;12992;50.884;13.668;2022-09-01T02:00:55;4.72;;;2.85;;
24961;SDS011;12992;50.884;13.668;2022-09-01T02:03:23;3.85;;;2.67;;
24961;SDS011;12992;50.884;13.668;2022-09-01T02:05:52;3.42;;;2.80;;
24961;SDS011;12992;50.884;13.668;2022-09-01T02:08:19;4.45;;;2.88;;
24961;SDS011;12992;50.884;13.668;2022-09-01T02:10:48;3.60;;;2.67;;
24961;SDS011;12992;50.884;13.668;2022-09-01T02:13:17;2.90;;;2.50;;
24961;SDS011;12992;50.884;13.668;2022-09-01T02:15:48;3.20;;;2.53;;
24961;SDS011;12992;50.884;13.668;2022-09-01T02:18:25;3.90;;;2.75;;
24961;SDS011;12992;50.884;13.668;2022-09-01T02:20:56;3.33;;;2.50;;
24961;SDS011;12992;50.884;13.668;2022-09-01T02:23:25;3.55;;;2.55;;
24961;SDS011;12992;50.884;13.668;2022-09-01T02:25:52;3.67;;;2.47;;
24961;SDS011;12992;50.884;13.668;2022-09-01T02:28:20;7.28;;;2.70;;
24961;SDS011;12992;50.884;13.668;2022-09-01T02:30:48;5.15;;;3.00;;
24961;SDS011;12992;50.884;13.668;2022-09-01T02:33:16;4.60;;;2.80;;
24961;SDS011;12992;50.884;13.668;2022-09-01T02:35:51;3.85;;;2.47;;
24961;SDS011;12992;50.884;13.668;2022-09-01T02:38:19;3.90;;;2.60;;
24961;SDS011;12992;50.884;13.668;2022-09-01T02:40:48;4.68;;;2.70;;
24961;SDS011;12992;50.884;13.668;2022-09-01T02:43:14;3.08;;;2.53;;
24961;SDS011;12992;50.884;13.668;2022-09-01T02:45:43;3.63;;;3.00;;
24961;SDS011;12992;50.884;13.668;2022-09-01T02:48:11;2.72;;;2.53;;
24961;SDS011;12992;50.884;13.668;2022-09-01T02:50:37;3.15;;;2.50;;
24961;SDS011;12992;50.884;13.668;2022-09-01T02:53:05;5.55;;;2.85;;
24961;SDS011;12992;50.884;13.668;2022-09-01T02:55:35;2.97;;;2.60;;
24961;SDS011;12992;50.884;13.668;2022-09-01T02:58:05;2.47;;;2.28;;
24961;SDS011;12992;50.884;13.668;2022-09-01T03:00:35;3.95;;;2.42;;
24961;SDS011;12992;50.884;13.668;2022-09-01T03:03:04;3.30;;;2.67;;
24961;SDS011;12992;50.884;13.668;2022-09-01T03:05:31;4.50;;;2.80;;
24961;SDS011;12992;50.884;13.668;2022-09-01T03:08:00;4.13;;;2.70;;
24961;SDS011;12992;50.884;13.668;2022-09-01T03:10:29;3.10;;;2.58;;
24961;SDS011;12992;50.884;13.668;2022-09-01T03:13:01;4.53;;;2.40;;
24961;SDS011;12992;50.884;13.668;2022-09-01T03:15:29;4.55;;;2.60;;
24961;SDS011;12992;50.884;13.668;2022-09-01T03:17:55;3.95;;;2.83;;
24961;SDS011;12992;50.884;13.668;2022-09-01T03:20:21;5.40;;;2.90;;
24961;SDS011;12992;50.884;13.668;2022-09-01T03:22:48;4.68;;;3.00;;
24961;SDS011;12992;50.884;13.668;2022-09-01T03:25:14;6.93;;;2.67;;
24961;SDS011;12992;50.884;13.668;2022-09-01T03:27:40;3.10;;;2.80;;
24961;SDS011;12992;50.884;13.668;2022-09-01T03:30:05;4.85;;;2.58;;
24961;SDS011;12992;50.884;13.668;2022-09-01T03:32:32;3.55;;;2.83;;
24961;SDS011;12992;50.884;13.668;2022-09-01T03:34:58;4.57;;;3.08;;
24961;SDS011;12992;50.884;13.668;2022-09-01T03:37:24;4.03;;;2.97;;
24961;SDS011;12992;50.884;13.668;2022-09-01T03:39:49;8.95;;;2.92;;
24961;SDS011;12992;50.884;13.668;2022-09-01T03:42:15;3.25;;;2.70;;
24961;SDS011;12992;50.884;13.668;2022-09-01T03:44:44;5.35;;;3.33;;
24961;SDS011;12992;50.884;13.668;2022-09-01T03:47:09;3.88;;;3.10;;
24961;SDS011;12992;50.884;13.668;2022-09-01T03:49:35;4.65;;;3.38;;
24961;SDS011;12992;50.884;13.668;2022-09-01T03:52:01;5.68;;;2.97;;
24961;SDS011;12992;50.884;13.668;2022-09-01T03:54:27;3.72;;;3.33;;
24961;SDS011;12992;50.884;13.668;2022-09-01T03:56:54;7.93;;;3.00;;
24961;SDS011;12992;50.884;13.668;2022-09-01T03:59:22;4.65;;;3.60;;
24961;SDS011;12992;50.884;13.668;2022-09-01T04:01:47;4.72;;;2.92;;
24961;SDS011;12992;50.884;13.668;2022-09-01T04:04:13;4.30;;;3.30;;
24961;SDS011;12992;50.884;13.668;2022-09-01T04:06:40;4.47;;;3.17;;
24961;SDS011;12992;50.884;13.668;2022-09-01T04:09:07;3.67;;;2.97;;
24961;SDS011;12992;50.884;13.668;2022-09-01T04:11:34;3.70;;;3.25;;
24961;SDS011;12992;50.884;13.668;2022-09-01T04:14:03;4.40;;;3.30;;
24961;SDS011;12992;50.884;13.668;2022-09-01T04:16:36;3.00;;;2.67;;
24961;SDS011;12992;50.884;13.668;2022-09-01T04:19:22;3.90;;;3.05;;
24961;SDS011;12992;50.884;13.668;2022-09-01T04:21:54;5.18;;;2.90;;
24961;SDS011;12992;50.884;13.668;2022-09-01T04:24:23;8.80;;;4.32;;
24961;SDS011;12992;50.884;13.668;2022-09-01T04:26:52;5.07;;;3.20;;
24961;SDS011;12992;50.884;13.668;2022-09-01T04:29:20;5.43;;;2.67;;
24961;SDS011;12992;50.884;13.668;2022-09-01T04:31:52;4.35;;;2.75;;
24961;SDS011;12992;50.884;13.668;2022-09-01T04:34:32;4.38;;;2.92;;
24961;SDS011;12992;50.884;13.668;2022-09-01T04:37:16;4.55;;;2.75;;
24961;SDS011;12992;50.884;13.668;2022-09-01T04:39:50;6.22;;;4.13;;
24961;SDS011;12992;50.884;13.668;2022-09-01T04:42:17;6.25;;;2.60;;
24961;SDS011;12992;50.884;13.668;2022-09-01T04:44:45;6.55;;;3.40;;
24961;SDS011;12992;50.884;13.668;2022-09-01T04:47:11;4.07;;;2.90;;
24961;SDS011;12992;50.884;13.668;2022-09-01T04:49:40;5.70;;;3.53;;
24961;SDS011;12992;50.884;13.668;2022-09-01T04:52:05;3.72;;;3.33;;
24961;SDS011;12992;50.884;13.668;2022-09-01T04:54:31;7.00;;;3.20;;
24961;SDS011;12992;50.884;13.668;2022-09-01T04:57:01;3.78;;;3.20;;
24961;SDS011;12992;50.884;13.668;2022-09-01T04:59:27;5.70;;;3.10;;
24961;SDS011;12992;50.884;13.668;2022-09-01T05:01:57;5.57;;;3.10;;
24961;SDS011;12992;50.884;13.668;2022-09-01T05:04:25;6.68;;;3.30;;
24961;SDS011;12992;50.884;13.668;2022-09-01T05:06:54;4.38;;;3.20;;
24961;SDS011;12992;50.884;13.668;2022-09-01T05:09:23;4.07;;;3.20;;
24961;SDS011;12992;50.884;13.668;2022-09-01T05:11:52;6.13;;;3.00;;
24961;SDS011;12992;50.884;13.668;2022-09-01T05:14:24;6.32;;;3.15;;
24961;SDS011;12992;50.884;13.668;2022-09-01T05:16:54;4.85;;;2.92;;
24961;SDS011;12992;50.884;13.668;2022-09-01T05:19:25;5.40;;;2.78;;
24961;SDS011;12992;50.884;13.668;2022-09-01T05:21:55;6.22;;;2.70;;
24961;SDS011;12992;50.884;13.668;2022-09-01T05:24:22;6.22;;;2.50;;
24961;SDS011;12992;50.884;13.668;2022-09-01T05:26:52;13.65;;;2.95;;
24961;SDS011;12992;50.884;13.668;2022-09-01T05:29:18;9.32;;;2.67;;
24961;SDS011;12992;50.884;13.668;2022-09-01T05:31:48;3.10;;;2.60;;
24961;SDS011;12992;50.884;13.668;2022-09-01T05:34:14;7.50;;;2.85;;
24961;SDS011;12992;50.884;13.668;2022-09-01T05:36:44;6.60;;;2.65;;
24961;SDS011;12992;50.884;13.668;2022-09-01T05:39:14;6.90;;;2.60;;
24961;SDS011;12992;50.884;13.668;2022-09-01T05:41:40;3.75;;;2.53;;
24961;SDS011;12992;50.884;13.668;2022-09-01T05:44:06;4.15;;;2.47;;
24961;SDS011;12992;50.884;13.668;2022-09-01T05:46:34;3.17;;;2.40;;
24961;SDS011;12992;50.884;13.668;2022-09-01T05:49:02;6.07;;;2.53;;
24961;SDS011;12992;50.884;13.668;2022-09-01T05:51:35;4.00;;;2.42;;
24961;SDS011;12992;50.884;13.668;2022-09-01T05:54:02;5.25;;;2.60;;
24961;SDS011;12992;50.884;13.668;2022-09-01T05:56:30;3.25;;;2.22;;
24961;SDS011;12992;50.884;13.668;2022-09-01T05:58:58;4.60;;;2.70;;
24961;SDS011;12992;50.884;13.668;2022-09-01T06:01:26;3.75;;;2.65;;
24961;SDS011;12992;50.884;13.668;2022-09-01T06:03:59;5.97;;;3.00;;
24961;SDS011;12992;50.884;13.668;2022-09-01T06:06:35;2.90;;;2.30;;
24961;SDS011;12992;50.884;13.668;2022-09-01T06:09:06;6.38;;;2.80;;
24961;SDS011;12992;50.884;13.668;2022-09-01T06:11:33;3.38;;;2.72;;
24961;SDS011;12992;50.884;13.668;2022-09-01T06:13:59;4.03;;;3.00;;
24961;SDS011;12992;50.884;13.668;2022-09-01T06:16:25;6.05;;;2.88;;
24961;SDS011;12992;50.884;13.668;2022-09-01T06:18:52;4.03;;;2.60;;
24961;SDS011;12992;50.884;13.668;2022-09-01T06:21:19;4.43;;;3.05;;
24961;SDS011;12992;50.884;13.668;2022-09-01T06:23:46;2.92;;;2.47;;
24961;SDS011;12992;50.884;13.668;2022-09-01T06:26:17;3.55;;;2.47;;
24961;SDS011;12992;50.884;13.668;2022-09-01T06:28:44;3.83;;;2.60;;
24961;SDS011;12992;50.884;13.668;2022-09-01T06:31:10;3.63;;;2.47;;
24961;SDS011;12992;50.884;13.668;2022-09-01T06:33:37;6.57;;;3.50;;
24961;SDS011;12992;50.884;13.668;2022-09-01T06:36:03;8.68;;;3.53;;
24961;SDS011;12992;50.884;13.668;2022-09-01T06:38:29;6.60;;;3.10;;
24961;SDS011;12992;50.884;13.668;2022-09-01T06:40:59;7.60;;;3.10;;
24961;SDS011;12992;50.884;13.668;2022-09-01T06:43:29;4.43;;;2.42;;
24961;SDS011;12992;50.884;13.668;2022-09-01T06:45:56;6.85;;;3.00;;
24961;SDS011;12992;50.884;13.668;2022-09-01T06:48:25;5.07;;;3.38;;
24961;SDS011;12992;50.884;13.668;2022-09-01T06:51:00;7.03;;;4.13;;
24961;SDS011;12992;50.884;13.668;2022-09-01T06:53:27;10.48;;;3.58;;
24961;SDS011;12992;50.884;13.668;2022-09-01T06:55:56;4.88;;;3.25;;
24961;SDS011;12992;50.884;13.668;2022-09-01T06:58:22;6.93;;;3.67;;
24961;SDS011;12992;50.884;13.668;2022-09-01T07:00:49;4.63;;;3.80;;
24961;SDS011;12992;50.884;13.668;2022-09-01T07:03:15;5.93;;;3.67;;
24961;SDS011;12992;50.884;13.668;2022-09-01T07:06:05;4.45;;;3.15;;
24961;SDS011;12992;50.884;13.668;2022-09-01T07:08:49;4.10;;;3.50;;
24961;SDS011;12992;50.884;13.668;2022-09-01T07:11:25;5.15;;;3.80;;
24961;SDS011;12992;50.884;13.668;2022-09-01T07:13:58;7.25;;;3.95;;
24961;SDS011;12992;50.884;13.668;2022-09-01T07:16:27;4.32;;;3.13;;
24961;SDS011;12992;50.884;13.668;2022-09-01T07:18:55;4.05;;;3.30;;
24961;SDS011;12992;50.884;13.668;2022-09-01T07:21:25;5.75;;;3.55;;
24961;SDS011;12992;50.884;13.668;2022-09-01T07:23:53;6.47;;;3.28;;
24961;SDS011;12992;50.884;13.668;2022-09-01T07:26:19;5.53;;;3.17;;
24961;SDS011;12992;50.884;13.668;2022-09-01T07:28:49;4.00;;;3.30;;
24961;SDS011;12992;50.884;13.668;2022-09-01T07:31:21;5.57;;;3.65;;
24961;SDS011;12992;50.884;13.668;2022-09-01T07:33:50;6.07;;;3.90;;
24961;SDS011;12992;50.884;13.668;2022-09-01T07:36:17;8.70;;;3.92;;
24961;SDS011;12992;50.884;13.668;2022-09-01T07:38:44;5.40;;;3.42;;
24961;SDS011;12992;50.884;13.668;2022-09-01T07:41:15;6.05;;;4.22;;
24961;SDS011;12992;50.884;13.668;2022-09-01T07:43:59;5.32;;;3.90;;
24961;SDS011;12992;50.884;13.668;2022-09-01T07:46:45;4.22;;;3.67;;
24961;SDS011;12992;50.884;13.668;2022-09-01T07:49:18;4.40;;;3.03;;
24961;SDS011;12992;50.884;13.668;2022-09-01T07:51:44;6.22;;;3.75;;
24961;SDS011;12992;50.884;13.668;2022-09-01T07:54:16;5.43;;;3.80;;
24961;SDS011;12992;50.884;13.668;2022-09-01T07:56:41;3.90;;;3.33;;
24961;SDS011;12992;50.884;13.668;2022-09-01T07:59:08;3.88;;;3.50;;
24961;SDS011;12992;50.884;13.668;2022-09-01T08:01:36;6.70;;;3.60;;
24961;SDS011;12992;50.884;13.668;2022-09-01T08:04:01;4.95;;;3.30;;
24961;SDS011;12992;50.884;13.668;2022-09-01T08:06:28;6.82;;;3.40;;
24961;SDS011;12992;50.884;13.668;2022-09-01T08:08:55;5.55;;;3.75;;
24961;SDS011;12992;50.884;13.668;2022-09-01T08:11:25;4.90;;;3.50;;
24961;SDS011;12992;50.884;13.668;2022-09-01T08:13:54;4.88;;;3.58;;
24961;SDS011;12992;50.884;13.668;2022-09-01T08:16:20;5.07;;;3.17;;
24961;SDS011;12992;50.884;13.668;2022-09-01T08:18:48;5.65;;;3.00;;
24961;SDS011;12992;50.884;13.668;2022-09-01T08:21:22;6.90;;;3.17;;
24961;SDS011;12992;50.884;13.668;2022-09-01T08:23:56;6.97;;;2.72;;
24961;SDS011;12992;50.884;13.668;2022-09-01T08:26:23;3.67;;;2.60;;
24961;SDS011;12992;50.884;13.668;2022-09-01T08:28:51;4.20;;;1.80;;
24961;SDS011;12992;50.884;13.668;2022-09-01T08:31:21;4.25;;;2.50;;
24961;SDS011;12992;50.884;13.668;2022-09-01T08:33:48;5.13;;;2.15;;
24961;SDS011;12992;50.884;13.668;2022-09-01T08:36:14;3.25;;;1.88;;
24961;SDS011;12992;50.884;13.668;2022-09-01T08:38:41;3.72;;;1.83;;
24961;SDS011;12992;50.884;13.668;2022-09-01T08:41:13;4.72;;;2.10;;
24961;SDS011;12992;50.884;13.668;2022-09-01T08:43:58;3.35;;;2.10;;
24961;SDS011;12992;50.884;13.668;2022-09-01T08:46:32;2.70;;;1.90;;
24961;SDS011;12992;50.884;13.668;2022-09-01T08:49:05;3.15;;;2.10;;
24961;SDS011;12992;50.884;13.668;2022-09-01T08:52:01;4.05;;;1.70;;
24961;SDS011;12992;50.884;13.668;2022-09-01T08:57:26;2.67;;;1.63;;
24961;SDS011;12992;50.884;13.668;2022-09-01T09:00:17;1.58;;;1.48;;
24961;SDS011;12992;50.884;13.668;2022-09-01T09:05:55;5.40;;;2.13;;
24961;SDS011;12992;50.884;13.668;2022-09-01T09:11:00;3.17;;;1.42;;
24961;SDS011;12992;50.884;13.668;2022-09-01T09:13:31;3.70;;;1.60;;
24961;SDS011;12992;50.884;13.668;2022-09-01T09:16:15;3.35;;;1.50;;
24961;SDS011;12992;50.884;13.668;2022-09-01T09:18:50;3.13;;;1.63;;
24961;SDS011;12992;50.884;13.668;2022-09-01T09:21:21;3.05;;;1.90;;
24961;SDS011;12992;50.884;13.668;2022-09-01T09:23:56;2.55;;;1.50;;
24961;SDS011;12992;50.884;13.668;2022-09-01T09:26:47;3.20;;;1.45;;
24961;SDS011;12992;50.884;13.668;2022-09-01T09:29:13;2.53;;;1.42;;
24961;SDS011;12992;50.884;13.668;2022-09-01T09:31:39;2.85;;;1.65;;
24961;SDS011;12992;50.884;13.668;2022-09-01T09:37:00;1.90;;;1.40;;
24961;SDS011;12992;50.884;13.668;2022-09-01T09:39:39;1.58;;;1.20;;
24961;SDS011;12992;50.884;13.668;2022-09-01T09:42:06;1.75;;;1.15;;
24961;SDS011;12992;50.884;13.668;2022-09-01T09:44:46;3.78;;;1.40;;
24961;SDS011;12992;50.884;13.668;2022-09-01T09:50:11;5.30;;;1.38;;
24961;SDS011;12992;50.884;13.668;2022-09-01T09:52:44;2.75;;;1.20;;
24961;SDS011;12992;50.884;13.668;2022-09-01T09:55:27;3.97;;;1.40;;
24961;SDS011;12992;50.884;13.668;2022-09-01T09:57:57;2.00;;;1.20;;
24961;SDS011;12992;50.884;13.668;2022-09-01T10:00:32;1.88;;;1.40;;
24961;SDS011;12992;50.884;13.668;2022-09-01T10:03:03;2.97;;;1.65;;
24961;SDS011;12992;50.884;13.668;2022-09-01T10:05:43;4.65;;;1.90;;
24961;SDS011;12992;50.884;13.668;2022-09-01T10:11:01;3.33;;;1.65;;
24961;SDS011;12992;50.884;13.668;2022-09-01T10:13:28;5.68;;;1.70;;
24961;SDS011;12992;50.884;13.668;2022-09-01T10:15:57;4.80;;;2.10;;
24961;SDS011;12992;50.884;13.668;2022-09-01T10:18:26;2.25;;;1.65;;
24961;SDS011;12992;50.884;13.668;2022-09-01T10:21:00;4.30;;;1.90;;
24961;SDS011;12992;50.884;13.668;2022-09-01T10:23:33;2.53;;;1.27;;
24961;SDS011;12992;50.884;13.668;2022-09-01T10:26:03;3.58;;;1.45;;
24961;SDS011;12992;50.884;13.668;2022-09-01T10:28:37;3.50;;;1.30;;
24961;SDS011;12992;50.884;13.668;2022-09-01T10:31:10;3.72;;;1.45;;
24961;SDS011;12992;50.884;13.668;2022-09-01T10:33:35;1.90;;;1.30;;
24961;SDS011;12992;50.884;13.668;2022-09-01T10:36:01;6.45;;;1.70;;
24961;SDS011;12992;50.884;13.668;2022-09-01T10:38:27;4.45;;;1.30;;
24961;SDS011;12992;50.884;13.668;2022-09-01T10:40:54;2.80;;;1.20;;
24961;SDS011;12992;50.884;13.668;2022-09-01T10:48:45;4.40;;;1.73;;
24961;SDS011;12992;50.884;13.668;2022-09-01T11:04:10;4.30;;;1.10;;
24961;SDS011;12992;50.884;13.668;2022-09-01T11:09:05;3.73;;;1.40;;
24961;SDS011;12992;50.884;13.668;2022-09-01T11:11:39;3.15;;;1.50;;
24961;SDS011;12992;50.884;13.668;2022-09-01T11:14:17;2.90;;;1.20;;
24961;SDS011;12992;50.884;13.668;2022-09-01T11:19:43;4.55;;;1.40;;
24961;SDS011;12992;50.884;13.668;2022-09-01T11:22:17;3.47;;;1.00;;
24961;SDS011;12992;50.884;13.668;2022-09-01T11:24:52;2.97;;;1.10;;
24961;SDS011;12992;50.884;13.668;2022-09-01T11:33:05;2.80;;;1.60;;
24961;SDS011;12992;50.884;13.668;2022-09-01T11:35:40;2.55;;;1.30;;
24961;SDS011;12992;50.884;13.668;2022-09-01T11:38:07;4.70;;;1.30;;
24961;SDS011;12992;50.884;13.668;2022-09-01T11:40:33;2.10;;;0.95;;
24961;SDS011;12992;50.884;13.668;2022-09-01T11:43:02;1.15;;;1.02;;
24961;SDS011;12992;50.884;13.668;2022-09-01T11:45:32;2.33;;;0.85;;
24961;SDS011;12992;50.884;13.668;2022-09-01T11:48:08;1.10;;;0.80;;
24961;SDS011;12992;50.884;13.668;2022-09-01T11:50:37;2.22;;;1.02;;
24961;SDS011;12992;50.884;13.668;2022-09-01T11:53:07;2.85;;;0.98;;
24961;SDS011;12992;50.884;13.668;2022-09-01T11:55:37;2.30;;;1.00;;
24961;SDS011;12992;50.884;13.668;2022-09-01T11:58:05;1.85;;;0.77;;
24961;SDS011;12992;50.884;13.668;2022-09-01T12:00:35;3.20;;;0.65;;
24961;SDS011;12992;50.884;13.668;2022-09-01T12:03:03;6.57;;;1.10;;
24961;SDS011;12992;50.884;13.668;2022-09-01T12:05:36;2.05;;;0.90;;
24961;SDS011;12992;50.884;13.668;2022-09-01T12:08:10;2.17;;;0.82;;
24961;SDS011;12992;50.884;13.668;2022-09-01T12:10:38;4.07;;;0.80;;
24961;SDS011;12992;50.884;13.668;2022-09-01T12:13:39;2.33;;;0.90;;
24961;SDS011;12992;50.884;13.668;2022-09-01T12:16:04;2.10;;;1.00;;
24961;SDS011;12992;50.884;13.668;2022-09-01T12:18:33;1.60;;;0.70;;
24961;SDS011;12992;50.884;13.668;2022-09-01T12:21:03;2.38;;;1.00;;
24961;SDS011;12992;50.884;13.668;2022-09-01T12:23:35;3.80;;;1.08;;
24961;SDS011;12992;50.884;13.668;2022-09-01T12:26:06;2.45;;;1.10;;
24961;SDS011;12992;50.884;13.668;2022-09-01T12:28:37;1.90;;;1.20;;
24961;SDS011;12992;50.884;13.668;2022-09-01T12:31:06;0.90;;;0.80;;
24961;SDS011;12992;50.884;13.668;2022-09-01T12:33:36;1.73;;;0.90;;
24961;SDS011;12992;50.884;13.668;2022-09-01T12:36:22;1.88;;;0.90;;
24961;SDS011;12992;50.884;13.668;2022-09-01T12:38:50;1.70;;;1.00;;
24961;SDS011;12992;50.884;13.668;2022-09-01T12:41:24;5.15;;;1.05;;
24961;SDS011;12992;50.884;13.668;2022-09-01T12:43:55;2.60;;;1.00;;
24961;SDS011;12992;50.884;13.668;2022-09-01T12:46:40;2.95;;;1.20;;
24961;SDS011;12992;50.884;13.668;2022-09-01T12:49:24;3.55;;;1.10;;
24961;SDS011;12992;50.884;13.668;2022-09-01T12:52:09;3.92;;;1.10;;
24961;SDS011;12992;50.884;13.668;2022-09-01T12:54:37;7.90;;;1.98;;
24961;SDS011;12992;50.884;13.668;2022-09-01T12:57:03;1.60;;;0.88;;
24961;SDS011;12992;50.884;13.668;2022-09-01T12:59:29;1.33;;;0.90;;
24961;SDS011;12992;50.884;13.668;2022-09-01T13:01:55;1.63;;;0.80;;
24961;SDS011;12992;50.884;13.668;2022-09-01T13:06:46;3.15;;;1.15;;
24961;SDS011;12992;50.884;13.668;2022-09-01T13:09:13;3.47;;;1.10;;
24961;SDS011;12992;50.884;13.668;2022-09-01T13:11:38;1.27;;;0.98;;
24961;SDS011;12992;50.884;13.668;2022-09-01T13:14:06;0.82;;;0.70;;
24961;SDS011;12992;50.884;13.668;2022-09-01T13:16:32;0.80;;;0.65;;
24961;SDS011;12992;50.884;13.668;2022-09-01T13:18:59;2.30;;;0.77;;
24961;SDS011;12992;50.884;13.668;2022-09-01T13:21:25;2.10;;;0.80;;
24961;SDS011;12992;50.884;13.668;2022-09-01T13:23:51;0.95;;;0.70;;
24961;SDS011;12992;50.884;13.668;2022-09-01T13:26:17;2.72;;;0.57;;
24961;SDS011;12992;50.884;13.668;2022-09-01T13:28:42;2.72;;;0.73;;
24961;SDS011;12992;50.884;13.668;2022-09-01T13:31:09;0.98;;;0.70;;
24961;SDS011;12992;50.884;13.668;2022-09-01T13:33:34;3.70;;;0.90;;
24961;SDS011;12992;50.884;13.668;2022-09-01T13:36:00;2.85;;;0.80;;
24961;SDS011;12992;50.884;13.668;2022-09-01T13:38:27;1.90;;;0.65;;
24961;SDS011;12992;50.884;13.668;2022-09-01T13:40:52;1.25;;;0.80;;
24961;SDS011;12992;50.884;13.668;2022-09-01T13:43:19;3.08;;;0.90;;
24961;SDS011;12992;50.884;13.668;2022-09-01T13:45:46;1.23;;;0.70;;
24961;SDS011;12992;50.884;13.668;2022-09-01T13:48:12;1.27;;;0.70;;
24961;SDS011;12992;50.884;13.668;2022-09-01T13:50:39;2.05;;;0.85;;
24961;SDS011;12992;50.884;13.668;2022-09-01T13:53:05;1.95;;;0.88;;
24961;SDS011;12992;50.884;13.668;2022-09-01T13:55:32;2.78;;;1.17;;
24961;SDS011;12992;50.884;13.668;2022-09-01T13:58:02;2.28;;;1.00;;
24961;SDS011;12992;50.884;13.668;2022-09-01T14:00:31;2.75;;;0.90;;
24961;SDS011;12992;50.884;13.668;2022-09-01T14:02:59;1.38;;;1.00;;
24961;SDS011;12992;50.884;13.668;2022-09-01T14:05:29;4.43;;;1.25;;
24961;SDS011;12992;50.884;13.668;2022-09-01T14:07:57;1.92;;;0.88;;
24961;SDS011;12992;50.884;13.668;2022-09-01T14:10:23;1.83;;;0.90;;
24961;SDS011;12992;50.884;13.668;2022-09-01T14:12:50;1.58;;;1.10;;
24961;SDS011;12992;50.884;13.668;2022-09-01T14:15:17;3.42;;;0.88;;
24961;SDS011;12992;50.884;13.668;2022-09-01T14:17:48;4.47;;;1.30;;
24961;SDS011;12992;50.884;13.668;2022-09-01T14:20:18;1.52;;;0.90;;
24961;SDS011;12992;50.884;13.668;2022-09-01T14:22:46;1.83;;;1.30;;
24961;SDS011;12992;50.884;13.668;2022-09-01T14:25:13;2.25;;;1.02;;
24961;SDS011;12992;50.884;13.668;2022-09-01T14:27:39;4.60;;;2.25;;
24961;SDS011;12992;50.884;13.668;2022-09-01T14:30:05;5.57;;;1.67;;
24961;SDS011;12992;50.884;13.668;2022-09-01T14:32:32;3.35;;;1.00;;
24961;SDS011;12992;50.884;13.668;2022-09-01T14:34:58;1.33;;;0.70;;
24961;SDS011;12992;50.884;13.668;2022-09-01T14:37:23;1.75;;;1.00;;
24961;SDS011;12992;50.884;13.668;2022-09-01T14:39:50;6.70;;;1.13;;
24961;SDS011;12992;50.884;13.668;2022-09-01T14:42:16;3.78;;;1.20;;
24961;SDS011;12992;50.884;13.668;2022-09-01T14:44:43;1.88;;;1.00;;
24961;SDS011;12992;50.884;13.668;2022-09-01T14:47:09;2.05;;;1.10;;
24961;SDS011;12992;50.884;13.668;2022-09-01T14:49:35;3.53;;;0.80;;
24961;SDS011;12992;50.884;13.668;2022-09-01T14:52:04;3.72;;;2.08;;
24961;SDS011;12992;50.884;13.668;2022-09-01T14:54:30;4.68;;;1.10;;
24961;SDS011;12992;50.884;13.668;2022-09-01T14:57:00;2.30;;;1.50;;
24961;SDS011;12992;50.884;13.668;2022-09-01T14:59:26;3.72;;;1.25;;
24961;SDS011;12992;50.884;13.668;2022-09-01T15:01:52;4.45;;;1.15;;
24961;SDS011;12992;50.884;13.668;2022-09-01T15:04:17;4.50;;;1.00;;
24961;SDS011;12992;50.884;13.668;2022-09-01T15:06:43;3.97;;;0.90;;
24961;SDS011;12992;50.884;13.668;2022-09-01T15:09:08;1.92;;;0.90;;
24961;SDS011;12992;50.884;13.668;2022-09-01T15:11:34;1.27;;;1.02;;
24961;SDS011;12992;50.884;13.668;2022-09-01T15:13:59;5.00;;;1.10;;
24961;SDS011;12992;50.884;13.668;2022-09-01T15:16:25;5.47;;;1.45;;
24961;SDS011;12992;50.884;13.668;2022-09-01T15:18:52;3.10;;;1.10;;
24961;SDS011;12992;50.884;13.668;2022-09-01T15:21:23;1.42;;;1.02;;
24961;SDS011;12992;50.884;13.668;2022-09-01T15:23:50;1.77;;;0.90;;
24961;SDS011;12992;50.884;13.668;2022-09-01T15:26:18;2.05;;;1.10;;
24961;SDS011;12992;50.884;13.668;2022-09-01T15:28:44;2.92;;;1.00;;
24961;SDS011;12992;50.884;13.668;2022-09-01T15:31:12;3.53;;;1.15;;
24961;SDS011;12992;50.884;13.668;2022-09-01T15:33:38;0.88;;;0.80;;
24961;SDS011;12992;50.884;13.668;2022-09-01T15:36:04;2.35;;;0.70;;